createdAt,value
2018-01-02T00:00:44.177Z,76.70
2018-01-02T00:03:11.749Z,77.00
2018-01-02T00:05:39.338Z,76.70
2018-01-02T00:08:06.888Z,77.20
2018-01-02T00:10:34.462Z,77.40
2018-01-02T00:13:02.257Z,77.30
2018-01-02T00:15:29.891Z,77.20
2018-01-02T00:17:57.470Z,77.00
2018-01-02T00:20:25.034Z,77.20
2018-01-02T00:22:53.421Z,77.50
2018-01-02T00:25:21.010Z,77.50
2018-01-02T00:27:48.576Z,77.30
2018-01-02T00:30:16.467Z,78.10
2018-01-02T00:32:44.042Z,77.50
2018-01-02T00:35:11.580Z,77.80
2018-01-02T00:37:39.168Z,78.00
2018-01-02T00:40:07.513Z,78.60
2018-01-02T00:42:35.086Z,78.30
2018-01-02T00:45:02.700Z,79.00
2018-01-02T00:47:30.266Z,78.40
2018-01-02T00:49:57.782Z,78.70
2018-01-02T00:52:26.116Z,79.90
2018-01-02T00:54:54.185Z,79.90
2018-01-02T00:57:21.707Z,82.10
2018-01-02T00:59:49.625Z,83.10
2018-01-02T01:02:17.156Z,84.60
2018-01-02T01:04:45.107Z,84.40
2018-01-02T01:07:12.667Z,84.40
2018-01-02T01:09:40.965Z,84.40
2018-01-02T01:12:08.499Z,84.40
2018-01-02T01:14:36.820Z,84.40
2018-01-02T01:17:04.344Z,84.30
2018-01-02T01:19:31.880Z,84.90
2018-01-02T01:21:59.459Z,85.00
2018-01-02T01:24:27.000Z,85.30
2018-01-02T01:26:54.595Z,85.70
2018-01-02T01:29:22.176Z,87.00
2018-01-02T01:31:49.707Z,86.50
2018-01-02T01:34:17.262Z,86.60
2018-01-02T01:36:44.872Z,86.00
2018-01-02T01:39:12.433Z,86.00
2018-01-02T01:41:39.964Z,85.10
2018-01-02T01:44:07.551Z,85.10
2018-01-02T01:46:35.108Z,85.40
2018-01-02T01:49:02.720Z,84.50
2018-01-02T01:51:31.079Z,83.50
2018-01-02T01:53:59.412Z,82.60
2018-01-02T01:56:27.316Z,82.70
2018-01-02T01:58:55.058Z,83.50
2018-01-02T02:01:22.636Z,82.50
2018-01-02T02:03:50.176Z,82.60
2018-01-02T02:06:17.923Z,82.10
2018-01-02T02:08:45.520Z,82.60
2018-01-02T02:11:25.504Z,82.50
2018-01-02T02:17:34.856Z,83.20
2018-01-02T02:20:02.395Z,84.60
2018-01-02T02:22:29.925Z,85.50
2018-01-02T02:24:57.523Z,84.30
2018-01-02T02:27:25.148Z,84.60
2018-01-02T02:29:52.782Z,84.80
2018-01-02T02:32:20.434Z,85.30
2018-01-02T02:34:49.713Z,85.70
2018-01-02T02:37:17.417Z,85.70
2018-01-02T02:39:45.041Z,86.20
2018-01-02T02:42:14.300Z,86.50
2018-01-02T02:44:41.920Z,86.40
2018-01-02T02:47:09.541Z,86.40
2018-01-02T02:49:37.166Z,86.30
2018-01-02T02:52:04.793Z,86.70
2018-01-02T02:54:32.421Z,85.50
2018-01-02T02:57:00.221Z,85.40
2018-01-02T02:59:27.809Z,85.00
2018-01-02T03:01:56.327Z,83.40
2018-01-02T03:04:25.375Z,83.30
2018-01-02T03:06:54.936Z,83.30
2018-01-02T03:09:22.568Z,81.90
2018-01-02T03:11:50.140Z,80.70
2018-01-02T03:14:17.724Z,80.40
2018-01-02T03:16:45.360Z,80.50
2018-01-02T03:19:26.952Z,79.60
2018-01-02T03:24:24.482Z,79.20
2018-01-02T03:26:52.846Z,78.80
2018-01-02T03:29:20.407Z,78.70
2018-01-02T03:31:48.029Z,79.20
2018-01-02T03:34:17.030Z,78.10
2018-01-02T03:36:44.624Z,78.20
2018-01-02T03:39:13.970Z,77.70
2018-01-02T03:41:41.548Z,77.70
2018-01-02T03:44:09.828Z,77.30
2018-01-02T03:46:37.500Z,77.40
2018-01-02T03:49:05.112Z,76.80
2018-01-02T03:51:32.742Z,76.20
2018-01-02T03:54:00.364Z,76.60
2018-01-02T03:56:27.977Z,76.40
2018-01-02T03:58:55.903Z,76.10
2018-01-02T04:01:23.560Z,75.80
2018-01-02T04:03:51.169Z,76.20
2018-01-02T04:06:19.557Z,76.90
2018-01-02T04:08:47.432Z,76.90
2018-01-02T04:11:16.523Z,76.70
2018-01-02T04:13:44.067Z,76.90
2018-01-02T04:16:12.849Z,77.40
2018-01-02T04:18:40.374Z,76.60
2018-01-02T04:21:07.903Z,77.00
2018-01-02T04:23:35.458Z,77.60
2018-01-02T04:26:02.982Z,77.70
2018-01-02T04:28:30.511Z,77.50
2018-01-02T04:30:58.917Z,78.30
2018-01-02T04:33:26.453Z,78.80
2018-01-02T04:35:53.985Z,78.20
2018-01-02T04:38:21.553Z,78.20
2018-01-02T04:40:49.076Z,77.80
2018-01-02T04:43:16.610Z,78.00
2018-01-02T04:45:44.158Z,78.20
2018-01-02T04:48:11.679Z,77.50
2018-01-02T04:50:39.198Z,77.70
2018-01-02T04:53:06.775Z,78.30
2018-01-02T04:55:35.075Z,77.70
2018-01-02T04:58:02.612Z,77.70
2018-01-02T05:00:31.333Z,77.80
2018-01-02T05:02:58.866Z,77.80
2018-01-02T05:05:27.159Z,78.40
2018-01-02T05:07:54.715Z,78.40
2018-01-02T05:10:22.256Z,78.90
2018-01-02T05:12:49.791Z,79.30
2018-01-02T05:15:17.376Z,80.00
2018-01-02T05:17:44.911Z,80.70
2018-01-02T05:20:12.434Z,81.20
2018-01-02T05:22:39.990Z,81.30
2018-01-02T05:25:07.517Z,81.80
2018-01-02T05:27:35.058Z,82.10
2018-01-02T05:30:02.618Z,82.40
2018-01-02T05:32:30.152Z,83.00
2018-01-02T05:34:57.685Z,84.00
2018-01-02T05:37:25.298Z,84.30
2018-01-02T05:39:52.837Z,85.00
2018-01-02T05:42:20.396Z,85.50
2018-01-02T05:44:47.963Z,85.70
2018-01-02T05:47:16.427Z,86.00
2018-01-02T05:49:43.956Z,86.40
2018-01-02T05:52:11.515Z,86.50
2018-01-02T05:54:39.104Z,86.50
2018-01-02T05:57:06.641Z,86.50
2018-01-02T05:59:34.247Z,86.40
2018-01-02T06:02:02.658Z,86.30
2018-01-02T06:04:30.954Z,86.30
2018-01-02T06:06:58.507Z,86.20
2018-01-02T06:09:26.044Z,86.30
2018-01-02T06:11:53.575Z,86.70
2018-01-02T06:14:22.322Z,86.50
2018-01-02T06:16:49.855Z,86.20
2018-01-02T06:19:18.155Z,85.70
2018-01-02T06:21:45.737Z,85.60
2018-01-02T06:24:15.363Z,84.90
2018-01-02T06:26:42.885Z,85.00
2018-01-02T06:29:10.451Z,85.00
2018-01-02T06:31:38.091Z,84.10
2018-01-02T06:34:05.632Z,84.30
2018-01-02T06:36:33.197Z,83.50
2018-01-02T06:39:01.503Z,83.60
2018-01-02T06:41:29.042Z,83.60
2018-01-02T06:43:57.386Z,83.10
2018-01-02T06:46:24.916Z,83.10
2018-01-02T06:48:52.443Z,82.70
2018-01-02T06:51:20.775Z,82.20
2018-01-02T06:53:48.311Z,82.20
2018-01-02T06:56:16.411Z,82.20
2018-01-02T06:58:44.048Z,82.90
2018-01-02T07:01:11.574Z,84.10
2018-01-02T07:03:39.247Z,85.60
2018-01-02T07:06:07.750Z,86.40
2018-01-02T07:08:35.275Z,86.40
2018-01-02T07:11:02.803Z,86.90
2018-01-02T07:13:30.363Z,87.00
2018-01-02T07:15:57.919Z,87.00
2018-01-02T07:18:25.446Z,87.10
2018-01-02T07:20:52.999Z,86.90
2018-01-02T07:23:20.528Z,86.70
2018-01-02T07:25:49.292Z,86.50
2018-01-02T07:28:16.883Z,86.50
2018-01-02T07:30:45.208Z,85.80
2018-01-02T07:33:12.731Z,85.80
2018-01-02T07:35:40.288Z,85.10
2018-01-02T07:38:07.815Z,85.10
2018-01-02T07:40:35.339Z,85.70
2018-01-02T07:43:02.896Z,85.00
2018-01-02T07:45:30.452Z,85.50
2018-01-02T07:47:57.983Z,85.90
2018-01-02T07:50:25.564Z,86.00
2018-01-02T07:52:53.092Z,86.20
2018-01-02T07:55:20.619Z,86.30
2018-01-02T07:57:48.862Z,85.30
2018-01-02T08:00:16.539Z,86.40
2018-01-02T08:02:44.063Z,87.80
2018-01-02T08:05:12.049Z,89.20
2018-01-02T08:07:39.579Z,90.30
2018-01-02T08:10:07.891Z,91.40
2018-01-02T08:12:35.680Z,91.30
2018-01-02T08:15:03.203Z,91.80
2018-01-02T08:17:30.732Z,92.30
2018-01-02T08:19:59.059Z,93.00
2018-01-02T08:22:27.351Z,93.30
2018-01-02T08:24:54.879Z,93.30
2018-01-02T08:27:22.444Z,93.20
2018-01-02T08:29:49.974Z,93.40
2018-01-02T08:32:18.276Z,93.40
2018-01-02T08:34:45.858Z,93.40
2018-01-02T08:37:25.990Z,93.50
2018-01-02T08:41:39.216Z,93.40
2018-01-02T08:44:06.751Z,93.40
2018-01-02T08:46:34.280Z,93.30
2018-01-02T08:49:01.835Z,93.20
2018-01-02T08:51:29.363Z,92.90
2018-01-02T08:53:56.904Z,92.70
2018-01-02T08:56:25.400Z,92.40
2018-01-02T08:58:52.944Z,92.40
2018-01-02T09:01:21.239Z,91.70
2018-01-02T09:03:48.798Z,91.70
2018-01-02T09:06:16.658Z,91.70
2018-01-02T09:08:44.954Z,91.00
2018-01-02T09:11:16.877Z,91.00
2018-01-02T09:13:50.027Z,90.70
2018-01-02T09:16:17.607Z,89.30
2018-01-02T09:18:45.135Z,88.90
2018-01-02T09:21:13.579Z,89.20
2018-01-02T09:23:41.156Z,88.60
2018-01-02T09:26:08.796Z,88.80
2018-01-02T09:28:38.451Z,88.40
2018-01-02T09:31:06.010Z,88.40
2018-01-02T09:33:33.554Z,89.40
2018-01-02T09:36:01.088Z,88.20
2018-01-02T09:38:28.692Z,87.30
2018-01-02T09:40:57.027Z,88.20
2018-01-02T09:43:24.558Z,88.10
2018-01-02T09:45:52.116Z,87.30
2018-01-02T09:48:19.656Z,86.90
2018-01-02T09:50:47.194Z,87.00
2018-01-02T09:53:16.468Z,86.80
2018-01-02T09:55:43.999Z,87.50
2018-01-02T09:58:11.535Z,87.20
2018-01-02T10:00:39.284Z,86.00
2018-01-02T10:03:06.807Z,87.10
2018-01-02T10:05:35.098Z,87.40
2018-01-02T10:08:04.009Z,88.40
2018-01-02T10:10:31.534Z,88.30
2018-01-02T10:12:59.826Z,89.30
2018-01-02T10:15:27.385Z,89.30
2018-01-02T10:17:54.912Z,86.80
2018-01-02T10:20:22.438Z,86.30
2018-01-02T10:22:50.015Z,86.20
2018-01-02T10:25:17.536Z,86.40
2018-01-02T10:27:45.111Z,87.00
2018-01-02T10:30:13.603Z,86.70
2018-01-02T10:32:41.943Z,87.30
2018-01-02T10:35:09.476Z,87.30
2018-01-02T10:37:37.039Z,86.90
2018-01-02T10:40:04.572Z,88.40
2018-01-02T10:42:32.096Z,89.90
2018-01-02T10:44:59.671Z,90.10
2018-01-02T10:47:27.968Z,90.40
2018-01-02T10:49:55.845Z,90.40
2018-01-02T10:52:23.398Z,90.30
2018-01-02T10:54:50.931Z,90.70
2018-01-02T10:57:19.224Z,91.40
2018-01-02T10:59:46.784Z,91.40
2018-01-02T11:02:25.145Z,91.40
2018-01-02T11:07:25.751Z,91.10
2018-01-02T11:09:53.422Z,91.70
2018-01-02T11:12:26.553Z,92.00
2018-01-02T11:14:54.115Z,91.60
2018-01-02T11:17:22.594Z,91.10
2018-01-02T11:19:50.963Z,91.10
2018-01-02T11:22:18.499Z,90.80
2018-01-02T11:24:46.033Z,90.20
2018-01-02T11:27:14.711Z,90.80
2018-01-02T11:29:42.239Z,90.70
2018-01-02T11:32:09.775Z,90.00
2018-01-02T11:34:37.412Z,90.00
2018-01-02T11:37:04.947Z,90.40
2018-01-02T11:39:32.479Z,90.20
2018-01-02T11:42:00.044Z,89.50
2018-01-02T11:44:28.388Z,89.10
2018-01-02T11:46:55.935Z,89.00
2018-01-02T11:49:23.528Z,88.80
2018-01-02T11:51:51.055Z,88.10
2018-01-02T11:54:18.659Z,86.40
2018-01-02T11:56:47.923Z,86.20
2018-01-02T11:59:16.407Z,86.10
2018-01-02T12:01:43.951Z,85.90
2018-01-02T12:04:11.549Z,86.40
2018-01-02T12:06:39.079Z,86.00
2018-01-02T12:09:06.608Z,85.80
2018-01-02T12:11:34.721Z,85.20
2018-01-02T12:14:02.277Z,85.90
2018-01-02T12:16:29.806Z,85.60
2018-01-02T12:18:57.441Z,85.90
2018-01-02T12:21:24.968Z,86.20
2018-01-02T12:23:52.511Z,87.00
2018-01-02T12:26:20.083Z,85.80
2018-01-02T12:28:47.610Z,85.50
2018-01-02T12:31:15.556Z,84.30
2018-01-02T12:33:43.349Z,84.40
2018-01-02T12:36:16.279Z,85.00
2018-01-02T12:38:43.844Z,85.00
2018-01-02T12:41:12.179Z,83.40
2018-01-02T12:43:39.709Z,84.00
2018-01-02T12:46:07.411Z,83.30
2018-01-02T12:48:35.050Z,83.10
2018-01-02T12:51:02.575Z,81.00
2018-01-02T12:53:30.135Z,81.30
2018-01-02T12:55:58.508Z,81.80
2018-01-02T12:58:26.042Z,81.90
2018-01-02T13:00:53.600Z,81.50
2018-01-02T13:03:21.315Z,82.20
2018-01-02T13:05:48.883Z,82.40
2018-01-02T13:08:17.576Z,81.60
2018-01-02T13:10:45.822Z,83.10
2018-01-02T13:13:15.591Z,82.20
2018-01-02T13:15:43.175Z,82.20
2018-01-02T13:18:11.560Z,82.10
2018-01-02T13:20:39.869Z,81.20
2018-01-02T13:23:07.443Z,81.20
2018-01-02T13:25:35.006Z,80.00
2018-01-02T13:28:02.540Z,80.10
2018-01-02T13:30:30.092Z,79.30
2018-01-02T13:32:57.683Z,79.70
2018-01-02T13:35:26.459Z,79.30
2018-01-02T13:40:31.015Z,79.40
2018-01-02T13:42:59.553Z,78.60
